Time;durP1;ratioP1;P1;durP2;ratioP2;P2;SDS_P1;SDS_P2;PMS_P1;PMS_P2;Temp;Humidity;BMP_temperature;BMP_pressure;BME280_temperature;BME280_humidity;BME280_pressure;Samples;Min_cycle;Max_cycle;Signal;HPM_P1;HPM_P2
2022/08/20 00:00:36;;;;;;;16.40;5.20;;;21.20;99.90;;;;;;5152750;27;45352;-71
2022/08/20 00:03:06;;;;;;;12.45;4.57;;;21.30;99.90;;;;;;5144909;27;45738;-70
2022/08/20 00:05:35;;;;;;;14.55;4.50;;;21.30;99.90;;;;;;5143953;27;45599;-70
2022/08/20 00:08:04;;;;;;;14.80;4.80;;;21.20;99.90;;;;;;5139203;27;45434;-70
2022/08/20 00:10:33;;;;;;;15.45;4.82;;;21.20;99.90;;;;;;5149076;27;48015;-70
2022/08/20 00:13:02;;;;;;;12.25;5.03;;;21.20;99.90;;;;;;5143482;27;45511;-70
2022/08/20 00:15:32;;;;;;;8.40;4.47;;;21.10;99.90;;;;;;5121494;27;45494;-70
2022/08/20 00:17:59;;;;;;;10.02;4.15;;;21.20;99.90;;;;;;5143937;27;45401;-70
2022/08/20 00:20:30;;;;;;;14.15;4.95;;;21.20;99.90;;;;;;5150750;27;47500;-70
2022/08/20 00:22:56;;;;;;;15.75;4.93;;;21.20;99.90;;;;;;5148941;27;45476;-70
2022/08/20 00:25:27;;;;;;;15.60;4.90;;;21.20;99.90;;;;;;5157197;27;45366;-70
2022/08/20 00:27:54;;;;;;;8.02;4.43;;;21.20;99.90;;;;;;5149196;27;45261;-70
2022/08/20 00:30:21;;;;;;;11.73;4.18;;;21.20;99.90;;;;;;5151033;27;45327;-70
2022/08/20 00:32:52;;;;;;;6.95;4.22;;;21.20;99.90;;;;;;5144830;27;45549;-71
2022/08/20 00:35:22;;;;;;;9.32;4.13;;;21.20;99.90;;;;;;5148363;27;45463;-70
2022/08/20 00:37:50;;;;;;;7.53;4.57;;;21.20;99.90;;;;;;5151233;27;45559;-70
2022/08/20 00:40:20;;;;;;;7.53;4.00;;;21.20;99.90;;;;;;5152875;27;47563;-69
2022/08/20 00:42:52;;;;;;;10.52;3.85;;;21.20;99.90;;;;;;5143085;27;45363;-71
2022/08/20 00:45:20;;;;;;;6.55;3.85;;;21.10;99.90;;;;;;5157372;27;45427;-70
2022/08/20 00:47:47;;;;;;;7.75;3.33;;;21.10;99.90;;;;;;5154219;27;45449;-70
2022/08/20 00:50:17;;;;;;;7.25;3.05;;;21.00;99.90;;;;;;5155956;27;46541;-71
2022/08/20 00:52:47;;;;;;;7.88;2.47;;;21.10;99.90;;;;;;5158231;27;45466;-69
2022/08/20 00:55:15;;;;;;;4.93;2.30;;;21.00;99.90;;;;;;5156009;27;45346;-70
2022/08/20 00:57:48;;;;;;;3.95;2.38;;;21.00;99.90;;;;;;5142167;27;45582;-70
2022/08/20 01:00:21;;;;;;;4.60;2.78;;;21.00;99.90;;;;;;5141562;27;46512;-70
2022/08/20 01:02:49;;;;;;;5.90;2.80;;;21.00;99.90;;;;;;5144360;27;45696;-70
2022/08/20 01:05:17;;;;;;;6.15;3.03;;;21.00;99.90;;;;;;5142921;27;45926;-70
2022/08/20 01:07:44;;;;;;;8.55;2.92;;;21.00;99.90;;;;;;5145075;27;45349;-70
2022/08/20 01:10:14;;;;;;;6.28;3.00;;;20.90;99.90;;;;;;5143906;27;48457;-70
2022/08/20 01:12:43;;;;;;;4.90;2.65;;;20.90;99.90;;;;;;5139468;27;45371;-71
2022/08/20 01:15:14;;;;;;;4.43;2.80;;;20.90;99.90;;;;;;5142504;27;45333;-70
2022/08/20 01:17:45;;;;;;;6.45;3.63;;;20.90;99.90;;;;;;5145176;27;45436;-70
2022/08/20 01:20:16;;;;;;;5.60;3.08;;;20.90;99.90;;;;;;5155066;27;45561;-70
2022/08/20 01:25:56;;;;;;;5.63;2.75;;;20.80;99.90;;;;;;5139564;27;45424;-70
2022/08/20 01:28:26;;;;;;;4.18;3.03;;;20.80;99.90;;;;;;5155126;27;45446;-71
2022/08/20 01:30:53;;;;;;;4.97;3.25;;;20.80;99.90;;;;;;5156814;27;45518;-71
2022/08/20 01:33:22;;;;;;;7.00;2.92;;;20.80;99.90;;;;;;5149723;27;45459;-70
2022/08/20 01:35:50;;;;;;;5.82;2.70;;;20.80;99.90;;;;;;5158336;27;45523;-70
2022/08/20 01:38:17;;;;;;;7.05;3.50;;;20.80;99.90;;;;;;5148701;27;45576;-71
2022/08/20 01:40:59;;;;;;;6.72;3.47;;;20.70;99.90;;;;;;5141216;27;46374;-70
2022/08/20 01:43:27;;;;;;;6.95;3.33;;;20.70;99.90;;;;;;5141583;27;45538;-70
2022/08/20 01:45:54;;;;;;;7.43;3.92;;;20.70;99.90;;;;;;5156832;27;45577;-70
2022/08/20 01:48:22;;;;;;;8.15;3.78;;;20.70;99.90;;;;;;5154559;27;45477;-70
2022/08/20 01:50:57;;;;;;;7.78;3.60;;;20.70;99.90;;;;;;5161604;27;48789;-71
2022/08/20 01:53:32;;;;;;;8.70;4.57;;;20.70;99.90;;;;;;5152790;27;45472;-70
2022/08/20 01:56:01;;;;;;;8.55;3.72;;;20.60;99.90;;;;;;5149196;27;45356;-70
2022/08/20 01:58:28;;;;;;;5.32;3.63;;;20.60;99.90;;;;;;5140960;27;45442;-71
2022/08/20 02:00:56;;;;;;;6.70;3.70;;;20.60;99.90;;;;;;5157453;27;45502;-70
2022/08/20 02:03:22;;;;;;;7.93;4.18;;;20.60;99.90;;;;;;5147736;27;45614;-70
2022/08/20 02:05:49;;;;;;;10.20;3.95;;;20.60;99.90;;;;;;5142541;27;45436;-71
2022/08/20 02:08:16;;;;;;;12.57;4.57;;;20.60;99.90;;;;;;5152619;27;45241;-70
2022/08/20 02:10:46;;;;;;;9.98;3.60;;;20.60;99.90;;;;;;5156505;27;46311;-70
2022/08/20 02:13:15;;;;;;;10.55;4.20;;;20.60;99.90;;;;;;5155075;27;45497;-70
2022/08/20 02:15:42;;;;;;;5.93;3.75;;;20.80;99.90;;;;;;5151159;27;45420;-70
2022/08/20 02:18:13;;;;;;;6.60;2.92;;;20.60;99.90;;;;;;5159938;27;45474;-70
2022/08/20 02:20:42;;;;;;;8.38;3.70;;;20.70;99.90;;;;;;5157209;27;48007;-70
2022/08/20 02:23:10;;;;;;;9.52;3.50;;;20.80;99.90;;;;;;5155296;27;46443;-71
2022/08/20 02:25:40;;;;;;;10.07;4.13;;;20.90;99.90;;;;;;5149625;27;45320;-70
2022/08/20 02:28:12;;;;;;;6.32;3.42;;;20.90;99.90;;;;;;5150967;27;45461;-70
2022/08/20 02:30:43;;;;;;;5.68;3.33;;;20.90;99.90;;;;;;5150210;27;45360;-71
2022/08/20 02:33:13;;;;;;;4.72;3.22;;;20.90;99.90;;;;;;5154104;27;46087;-72
2022/08/20 02:35:42;;;;;;;4.97;3.33;;;20.90;99.90;;;;;;5151840;27;45367;-70
2022/08/20 02:38:09;;;;;;;8.68;3.50;;;20.90;99.90;;;;;;5154227;27;45432;-70
2022/08/20 02:40:37;;;;;;;7.63;3.53;;;21.00;99.90;;;;;;5148337;27;46086;-70
2022/08/20 02:43:04;;;;;;;8.73;3.70;;;21.00;99.90;;;;;;5153551;27;45890;-70
2022/08/20 02:45:34;;;;;;;4.28;3.15;;;21.00;99.90;;;;;;5156828;27;45333;-69
2022/08/20 02:48:04;;;;;;;7.15;3.88;;;21.00;99.90;;;;;;5143991;27;45466;-70
2022/08/20 02:50:31;;;;;;;6.32;3.38;;;21.00;99.90;;;;;;5155524;27;45416;-70
2022/08/20 02:52:57;;;;;;;6.50;3.13;;;21.00;99.90;;;;;;5151738;27;45544;-70
2022/08/20 02:55:24;;;;;;;5.85;3.42;;;21.00;99.90;;;;;;5150985;27;45334;-70
2022/08/20 02:57:53;;;;;;;8.75;3.78;;;21.00;99.90;;;;;;5150090;27;45378;-70
2022/08/20 03:00:22;;;;;;;6.50;3.40;;;21.00;99.90;;;;;;5153899;27;47427;-70
2022/08/20 03:02:49;;;;;;;4.65;3.05;;;21.00;99.90;;;;;;5152437;27;45317;-70
2022/08/20 03:05:17;;;;;;;5.35;3.33;;;21.00;99.90;;;;;;5160943;27;45617;-71
2022/08/20 03:07:45;;;;;;;12.10;3.70;;;21.00;99.90;;;;;;5157330;27;45231;-70
2022/08/20 03:10:13;;;;;;;5.43;3.22;;;21.00;99.90;;;;;;5156041;27;46604;-70
2022/08/20 03:12:40;;;;;;;8.10;3.40;;;21.00;99.90;;;;;;5150398;27;45345;-70
2022/08/20 03:15:09;;;;;;;8.63;3.30;;;21.00;99.90;;;;;;5147954;27;45339;-70
2022/08/20 03:17:36;;;;;;;6.28;3.20;;;21.00;99.90;;;;;;5151687;27;45504;-71
2022/08/20 03:20:05;;;;;;;8.43;3.60;;;21.00;99.90;;;;;;5154551;27;48049;-71
2022/08/20 03:22:33;;;;;;;11.85;3.80;;;21.00;99.90;;;;;;5152745;27;45567;-70
2022/08/20 03:25:00;;;;;;;7.53;3.67;;;21.00;99.90;;;;;;5155177;27;45416;-70
2022/08/20 03:27:26;;;;;;;7.55;3.60;;;20.90;99.90;;;;;;5150805;27;45403;-70
2022/08/20 03:29:53;;;;;;;9.55;3.70;;;21.00;99.90;;;;;;5153394;27;46404;-71
2022/08/20 03:32:20;;;;;;;9.07;3.35;;;21.00;99.90;;;;;;5155094;27;45332;-70
2022/08/20 03:34:47;;;;;;;6.13;3.83;;;20.90;99.90;;;;;;5154889;27;45330;-70
2022/08/20 03:37:14;;;;;;;8.70;3.42;;;21.00;99.90;;;;;;5146944;27;45483;-71
2022/08/20 03:39:42;;;;;;;8.93;3.30;;;21.00;99.90;;;;;;5135452;27;47625;-69
2022/08/20 03:42:08;;;;;;;6.72;3.42;;;21.00;99.90;;;;;;5142255;27;45381;-70
2022/08/20 03:44:36;;;;;;;6.55;3.45;;;20.90;99.90;;;;;;5156445;27;45378;-70
2022/08/20 03:47:06;;;;;;;9.52;3.58;;;20.90;99.90;;;;;;5154961;27;45437;-70
2022/08/20 03:49:34;;;;;;;6.35;3.05;;;20.90;99.90;;;;;;5153603;27;46479;-70
2022/08/20 03:52:01;;;;;;;10.38;3.55;;;20.90;99.90;;;;;;5143041;27;45398;-70
2022/08/20 03:54:28;;;;;;;8.65;3.35;;;20.90;99.90;;;;;;5151444;27;45392;-71
2022/08/20 03:56:56;;;;;;;14.65;3.08;;;20.90;99.90;;;;;;5147517;27;45512;-70
2022/08/20 03:59:23;;;;;;;5.80;3.20;;;21.00;99.90;;;;;;5145824;27;45470;-69
2022/08/20 04:01:51;;;;;;;7.85;3.70;;;21.00;99.90;;;;;;5147035;27;45397;-70
2022/08/20 04:04:18;;;;;;;8.70;3.88;;;21.00;99.90;;;;;;5144742;27;45331;-71
2022/08/20 04:06:45;;;;;;;7.20;3.67;;;21.00;99.90;;;;;;5140795;27;45233;-70
2022/08/20 04:09:12;;;;;;;9.95;4.13;;;20.90;99.90;;;;;;5152945;27;48138;-70
2022/08/20 04:11:39;;;;;;;11.27;5.30;;;20.90;99.90;;;;;;5161436;27;45611;-71
2022/08/20 04:14:08;;;;;;;10.30;4.90;;;20.90;99.90;;;;;;5162679;27;45473;-71
2022/08/20 04:16:36;;;;;;;9.82;5.75;;;20.90;99.90;;;;;;5161861;27;45355;-70
2022/08/20 04:19:03;;;;;;;18.35;6.03;;;20.90;99.90;;;;;;5157185;27;45324;-70
2022/08/20 04:21:30;;;;;;;15.13;7.18;;;21.00;99.90;;;;;;5148071;27;45287;-71
2022/08/20 04:23:58;;;;;;;11.43;7.30;;;21.00;99.90;;;;;;5150977;27;45308;-70
2022/08/20 04:26:25;;;;;;;14.43;7.72;;;20.90;99.90;;;;;;5156093;27;45494;-70
2022/08/20 04:28:54;;;;;;;10.95;7.50;;;21.00;99.90;;;;;;5151529;27;45434;-70
2022/08/20 04:31:24;;;;;;;16.38;11.63;;;21.00;99.90;;;;;;5154648;27;45550;-71
2022/08/20 04:33:51;;;;;;;17.05;12.43;;;21.00;99.90;;;;;;5153832;27;45419;-72
2022/08/20 04:36:17;;;;;;;20.05;13.73;;;20.90;99.90;;;;;;5156696;27;45566;-70
2022/08/20 04:38:44;;;;;;;24.77;14.93;;;20.90;99.90;;;;;;5159358;27;47353;-70
2022/08/20 04:41:11;;;;;;;17.25;10.82;;;20.80;99.90;;;;;;5152832;27;45418;-71
2022/08/20 04:43:38;;;;;;;13.50;7.97;;;20.80;99.90;;;;;;5150484;27;45435;-71
2022/08/20 04:46:08;;;;;;;9.10;7.05;;;20.60;99.90;;;;;;5146180;27;45516;-70
2022/08/20 04:48:37;;;;;;;8.90;5.53;;;20.70;99.90;;;;;;5151886;27;46385;-70
2022/08/20 04:51:06;;;;;;;9.07;5.25;;;20.60;99.90;;;;;;5150604;27;45462;-70
2022/08/20 04:53:33;;;;;;;8.20;5.20;;;20.60;99.90;;;;;;5158205;27;45228;-70
2022/08/20 04:56:01;;;;;;;9.82;5.28;;;20.60;99.90;;;;;;5149006;27;45492;-70
2022/08/20 04:58:32;;;;;;;7.60;4.85;;;20.40;99.90;;;;;;5151015;27;47476;-70
2022/08/20 05:01:02;;;;;;;6.40;4.50;;;20.50;99.90;;;;;;5155124;27;45376;-70
2022/08/20 05:03:29;;;;;;;9.00;4.65;;;20.60;99.90;;;;;;5143947;27;45388;-70
2022/08/20 05:05:57;;;;;;;7.15;4.88;;;20.60;99.90;;;;;;5155575;27;45427;-70
2022/08/20 05:08:25;;;;;;;8.60;6.00;;;20.60;99.90;;;;;;5157428;27;46605;-70
2022/08/20 05:10:54;;;;;;;10.65;6.60;;;20.60;99.90;;;;;;5153841;27;45472;-72
2022/08/20 05:13:21;;;;;;;10.38;6.50;;;20.50;99.90;;;;;;5154194;27;45594;-70
2022/08/20 05:15:49;;;;;;;16.92;8.40;;;20.70;99.90;;;;;;5149949;27;45524;-71
2022/08/20 05:18:18;;;;;;;17.95;10.85;;;20.70;99.90;;;;;;5154063;27;48270;-70
2022/08/20 05:20:45;;;;;;;15.93;9.07;;;20.60;99.90;;;;;;5153695;27;45311;-70
2022/08/20 05:23:15;;;;;;;23.00;13.55;;;20.70;99.90;;;;;;5145309;27;45235;-70
2022/08/20 05:25:43;;;;;;;21.42;13.50;;;20.70;99.90;;;;;;5149840;27;45731;-70
2022/08/20 05:28:13;;;;;;;24.08;15.27;;;20.60;99.90;;;;;;5146099;27;45622;-70
2022/08/20 05:30:42;;;;;;;23.73;14.93;;;20.60;99.90;;;;;;5148379;27;45420;-70
2022/08/20 05:33:10;;;;;;;31.45;16.88;;;20.70;99.90;;;;;;5154269;27;45513;-71
2022/08/20 05:35:38;;;;;;;30.67;18.40;;;20.70;99.90;;;;;;5153331;27;45324;-71
2022/08/20 05:38:05;;;;;;;39.35;18.80;;;20.70;99.90;;;;;;5153947;27;47275;-70
2022/08/20 05:40:34;;;;;;;39.78;19.27;;;20.60;99.90;;;;;;5158918;27;45250;-70
2022/08/20 05:43:03;;;;;;;34.33;18.48;;;20.50;99.90;;;;;;5153735;27;45566;-70
2022/08/20 05:45:29;;;;;;;32.72;18.00;;;20.50;99.90;;;;;;5159155;27;45522;-70
2022/08/20 05:47:57;;;;;;;35.70;19.50;;;20.50;99.90;;;;;;5144856;27;47507;-71
2022/08/20 05:50:24;;;;;;;30.67;18.67;;;20.50;99.90;;;;;;5158229;27;46402;-70
2022/08/20 05:52:51;;;;;;;31.65;18.38;;;20.60;99.90;;;;;;5153002;27;45346;-70
2022/08/20 05:55:18;;;;;;;30.42;17.45;;;20.60;99.90;;;;;;5156665;27;45211;-70
2022/08/20 05:57:46;;;;;;;26.45;16.63;;;20.70;99.90;;;;;;5150616;27;48080;-70
2022/08/20 06:00:14;;;;;;;26.45;15.85;;;20.60;99.90;;;;;;5155096;27;45284;-70
2022/08/20 06:05:27;;;;;;;24.38;14.65;;;20.50;99.90;;;;;;5142292;27;45220;-70
2022/08/20 06:07:54;;;;;;;26.92;14.70;;;20.60;99.90;;;;;;5150683;27;47342;-70
2022/08/20 06:10:21;;;;;;;25.08;16.42;;;20.60;99.90;;;;;;5144907;27;45487;-71
2022/08/20 06:12:50;;;;;;;25.80;16.15;;;20.30;99.90;;;;;;5147647;27;45495;-70
2022/08/20 06:15:17;;;;;;;31.95;15.80;;;20.00;99.90;;;;;;5156793;27;45471;-70
2022/08/20 06:17:43;;;;;;;30.02;16.88;;;19.90;99.90;;;;;;5148343;27;46602;-70
2022/08/20 06:20:11;;;;;;;34.90;17.52;;;19.70;99.90;;;;;;5152413;27;45289;-70
2022/08/20 06:22:38;;;;;;;27.70;17.25;;;19.60;99.90;;;;;;5146905;27;45325;-70
2022/08/20 06:25:06;;;;;;;28.70;16.60;;;19.60;99.90;;;;;;5151561;27;45511;-70
2022/08/20 06:27:33;;;;;;;28.10;15.48;;;19.50;99.90;;;;;;5146254;27;47505;-70
2022/08/20 06:30:02;;;;;;;31.33;16.20;;;19.50;99.90;;;;;;5157961;27;45287;-70
2022/08/20 06:32:28;;;;;;;29.98;16.13;;;19.50;99.90;;;;;;5137603;27;45567;-70
2022/08/20 06:34:55;;;;;;;27.85;15.43;;;19.50;99.90;;;;;;5149015;27;45492;-70
2022/08/20 06:37:25;;;;;;;26.48;15.20;;;19.50;99.90;;;;;;5149284;27;47484;-70
2022/08/20 06:39:52;;;;;;;25.27;14.57;;;19.50;99.90;;;;;;5149381;27;45289;-71
2022/08/20 06:42:20;;;;;;;24.73;14.27;;;19.70;99.90;;;;;;5150063;27;45386;-70
2022/08/20 06:44:48;;;;;;;23.85;13.98;;;20.00;99.90;;;;;;5151424;27;45489;-69
2022/08/20 06:47:17;;;;;;;24.50;13.93;;;19.70;99.90;;;;;;5139545;27;47638;-72
2022/08/20 06:49:43;;;;;;;24.90;13.18;;;19.70;99.90;;;;;;5144409;27;45337;-71
2022/08/20 06:52:10;;;;;;;27.17;13.48;;;19.90;99.90;;;;;;5145174;27;45367;-71
2022/08/20 06:54:37;;;;;;;27.50;13.30;;;19.90;99.90;;;;;;5141254;27;45437;-70
2022/08/20 06:57:05;;;;;;;26.23;13.95;;;20.10;99.90;;;;;;5153749;27;45568;-70
2022/08/20 06:59:31;;;;;;;25.27;14.18;;;20.00;99.90;;;;;;5151695;27;45370;-70
2022/08/20 07:01:58;;;;;;;24.25;13.35;;;20.00;99.90;;;;;;5150772;27;45381;-72
2022/08/20 07:04:27;;;;;;;21.65;13.43;;;20.00;99.90;;;;;;5153463;27;45462;-70
2022/08/20 07:06:56;;;;;;;28.48;13.88;;;20.00;99.90;;;;;;5157022;27;47651;-71
2022/08/20 07:09:24;;;;;;;20.27;13.27;;;19.90;99.90;;;;;;5152455;27;45294;-70
2022/08/20 07:11:51;;;;;;;22.40;12.05;;;19.90;99.90;;;;;;5158232;27;45435;-70
2022/08/20 07:14:18;;;;;;;28.42;13.40;;;19.90;99.90;;;;;;5153413;27;45246;-70
2022/08/20 07:16:46;;;;;;;28.55;12.70;;;19.80;99.90;;;;;;5153387;27;47225;-70
2022/08/20 07:19:14;;;;;;;18.92;11.40;;;19.90;99.90;;;;;;5149157;27;46654;-70
2022/08/20 07:21:42;;;;;;;20.58;10.60;;;20.20;99.90;;;;;;5149013;27;45373;-70
2022/08/20 07:24:11;;;;;;;23.17;10.70;;;20.50;99.90;;;;;;5155004;27;45471;-71
2022/08/20 07:26:38;;;;;;;21.10;10.63;;;20.50;99.90;;;;;;5154555;27;46537;-70
2022/08/20 07:29:04;;;;;;;25.08;11.55;;;20.20;99.90;;;;;;5152360;27;45534;-71
2022/08/20 07:34:15;;;;;;;16.35;10.05;;;20.00;99.90;;;;;;5149635;27;45399;-70
2022/08/20 07:36:43;;;;;;;23.45;12.23;;;20.10;99.90;;;;;;5146205;27;47529;-70
2022/08/20 07:42:32;;;;;;;23.63;10.55;;;19.60;99.90;;;;;;5143748;27;45249;-70
2022/08/20 07:45:00;;;;;;;21.17;12.93;;;19.60;99.90;;;;;;5155501;27;45352;-70
2022/08/20 07:47:27;;;;;;;26.95;11.88;;;19.80;99.90;;;;;;5148476;27;48721;-70
2022/08/20 07:49:54;;;;;;;20.13;11.70;;;19.90;99.90;;;;;;5151790;27;45330;-70
2022/08/20 07:52:22;;;;;;;21.95;10.57;;;19.70;99.90;;;;;;5158108;27;45408;-70
2022/08/20 07:54:49;;;;;;;23.90;11.48;;;19.80;99.90;;;;;;5147822;27;45485;-70
2022/08/20 07:57:16;;;;;;;22.08;11.02;;;19.90;99.90;;;;;;5151086;27;48057;-71
2022/08/20 07:59:43;;;;;;;22.85;11.77;;;19.90;99.90;;;;;;5151137;27;45347;-70
2022/08/20 08:02:11;;;;;;;23.48;11.73;;;19.90;99.90;;;;;;5157735;27;45508;-70
2022/08/20 08:04:38;;;;;;;22.73;12.05;;;19.90;99.90;;;;;;5145661;27;45408;-71
2022/08/20 08:07:05;;;;;;;28.60;12.68;;;19.90;99.90;;;;;;5152965;27;46906;-70
2022/08/20 08:09:35;;;;;;;26.52;12.38;;;19.80;99.90;;;;;;5144673;27;45419;-70
2022/08/20 08:12:03;;;;;;;27.45;13.00;;;19.90;99.90;;;;;;5158414;27;45322;-71
2022/08/20 08:14:33;;;;;;;22.42;11.45;;;19.90;99.90;;;;;;5157338;27;45274;-71
2022/08/20 08:17:03;;;;;;;26.42;11.27;;;19.90;99.90;;;;;;5154458;27;47376;-70
2022/08/20 08:19:37;;;;;;;31.52;12.32;;;20.00;99.90;;;;;;5147076;27;45392;-70
2022/08/20 08:22:04;;;;;;;26.60;12.57;;;20.00;99.90;;;;;;5155451;27;45387;-70
2022/08/20 08:24:33;;;;;;;27.75;12.50;;;19.90;99.90;;;;;;5160435;27;45566;-70
2022/08/20 08:26:59;;;;;;;23.48;11.77;;;20.00;99.90;;;;;;5148470;27;47426;-70
2022/08/20 08:29:27;;;;;;;27.75;12.65;;;20.00;99.90;;;;;;5148441;27;45470;-70
2022/08/20 08:31:54;;;;;;;24.77;11.50;;;20.00;99.90;;;;;;5145974;27;45360;-70
2022/08/20 08:34:23;;;;;;;29.17;11.98;;;20.10;99.90;;;;;;5153470;27;45375;-71
2022/08/20 08:36:50;;;;;;;26.85;11.80;;;20.10;99.90;;;;;;5143154;27;46536;-71
2022/08/20 08:39:18;;;;;;;29.65;12.00;;;20.10;99.90;;;;;;5154847;27;45530;-71
2022/08/20 08:41:49;;;;;;;21.40;11.68;;;20.20;99.90;;;;;;5154939;27;45243;-71
2022/08/20 08:44:21;;;;;;;24.98;11.80;;;20.20;99.90;;;;;;5159011;27;45415;-70
2022/08/20 08:46:51;;;;;;;26.95;11.70;;;20.20;99.90;;;;;;5154827;27;48270;-70
2022/08/20 08:49:21;;;;;;;35.28;13.32;;;20.20;99.90;;;;;;5157796;27;45345;-71
2022/08/20 08:51:54;;;;;;;28.73;12.57;;;20.30;99.90;;;;;;5157392;27;45526;-71
2022/08/20 08:54:24;;;;;;;32.15;12.63;;;20.20;99.90;;;;;;5143908;27;45602;-71
2022/08/20 08:56:53;;;;;;;41.38;13.38;;;20.20;99.90;;;;;;5142646;27;45366;-71
2022/08/20 08:59:21;;;;;;;31.48;13.52;;;20.30;99.90;;;;;;5143992;27;45981;-71
2022/08/20 09:01:52;;;;;;;31.23;13.60;;;20.40;99.90;;;;;;5152192;27;45337;-70
2022/08/20 09:04:20;;;;;;;30.10;12.88;;;20.40;99.90;;;;;;5148132;27;45447;-71
2022/08/20 09:06:48;;;;;;;31.45;12.65;;;20.40;99.90;;;;;;5154506;27;48554;-71
2022/08/20 09:09:20;;;;;;;29.60;13.75;;;20.30;99.90;;;;;;5147392;27;45486;-70
2022/08/20 09:11:48;;;;;;;27.17;13.00;;;20.40;99.90;;;;;;5162260;27;45323;-71
2022/08/20 09:14:17;;;;;;;27.55;12.82;;;20.40;99.90;;;;;;5152403;27;45422;-72
2022/08/20 09:16:43;;;;;;;29.80;12.82;;;20.50;99.90;;;;;;5152705;27;47368;-71
2022/08/20 09:19:10;;;;;;;29.00;13.10;;;20.50;99.90;;;;;;5135209;27;45421;-71
2022/08/20 09:21:37;;;;;;;29.80;14.15;;;20.30;99.90;;;;;;5158517;27;45552;-72
2022/08/20 09:24:04;;;;;;;25.35;11.68;;;20.20;99.90;;;;;;5155206;27;45379;-71
2022/08/20 09:26:31;;;;;;;27.40;13.35;;;20.30;99.90;;;;;;5154040;27;47409;-70
2022/08/20 09:28:58;;;;;;;31.10;14.45;;;20.20;99.90;;;;;;5144320;27;45463;-71
2022/08/20 09:31:26;;;;;;;28.73;14.80;;;20.20;99.90;;;;;;5145708;27;45499;-71
2022/08/20 09:33:53;;;;;;;35.85;15.20;;;20.10;99.90;;;;;;5133389;27;45591;-70
2022/08/20 09:36:20;;;;;;;30.60;14.25;;;19.80;99.90;;;;;;5150964;27;46775;-71
2022/08/20 09:38:46;;;;;;;31.05;14.25;;;19.90;99.90;;;;;;5155644;27;45359;-72
2022/08/20 09:41:14;;;;;;;29.55;12.73;;;20.20;99.90;;;;;;5143894;27;45394;-70
2022/08/20 09:43:41;;;;;;;27.27;13.10;;;20.40;99.90;;;;;;5143021;27;45420;-70
2022/08/20 09:46:08;;;;;;;27.30;11.35;;;20.20;99.90;;;;;;5153189;27;46264;-70
2022/08/20 09:48:36;;;;;;;27.02;13.00;;;20.30;99.90;;;;;;5153885;27;45429;-70
2022/08/20 09:51:03;;;;;;;29.67;12.65;;;20.70;99.90;;;;;;5151719;27;45325;-71
2022/08/20 09:53:30;;;;;;;24.67;11.07;;;20.80;99.90;;;;;;5157249;27;45452;-71
2022/08/20 09:55:58;;;;;;;32.27;14.47;;;21.10;99.90;;;;;;5149869;27;45576;-70
2022/08/20 09:58:33;;;;;;;28.42;13.30;;;20.80;99.90;;;;;;5154850;27;45301;-70
2022/08/20 10:01:03;;;;;;;30.90;13.80;;;20.30;99.90;;;;;;5141863;27;45469;-70
2022/08/20 10:03:29;;;;;;;25.92;12.38;;;20.30;99.90;;;;;;5139333;27;45515;-71
2022/08/20 10:05:58;;;;;;;26.83;12.80;;;20.90;99.90;;;;;;5164086;27;47526;-70
2022/08/20 10:08:26;;;;;;;29.10;12.10;;;21.10;99.90;;;;;;5164311;27;45379;-72
2022/08/20 10:10:54;;;;;;;20.60;11.57;;;21.10;99.90;;;;;;5131934;27;45335;-70
2022/08/20 10:13:21;;;;;;;27.13;11.38;;;21.10;99.90;;;;;;5123278;27;45564;-71
2022/08/20 10:15:47;;;;;;;25.73;12.43;;;21.20;99.90;;;;;;5124210;27;46197;-71
2022/08/20 10:18:14;;;;;;;29.77;11.80;;;21.30;99.90;;;;;;5126659;27;45332;-71
2022/08/20 10:20:41;;;;;;;25.50;11.25;;;21.00;99.90;;;;;;5145461;27;45440;-72
2022/08/20 10:23:09;;;;;;;29.33;12.95;;;21.00;99.90;;;;;;5145712;27;45439;-70
2022/08/20 10:25:36;;;;;;;24.10;11.27;;;20.90;99.90;;;;;;5145102;27;47408;-71
2022/08/20 10:28:04;;;;;;;21.75;10.48;;;20.90;99.90;;;;;;5126948;27;45219;-71
2022/08/20 10:30:31;;;;;;;25.58;12.15;;;21.20;99.90;;;;;;5124765;27;45481;-71
2022/08/20 10:32:57;;;;;;;29.33;12.50;;;21.40;99.90;;;;;;5124320;27;45499;-71
2022/08/20 10:35:24;;;;;;;24.95;12.13;;;21.50;99.90;;;;;;5124685;27;45258;-70
2022/08/20 10:37:51;;;;;;;37.33;13.45;;;21.30;99.90;;;;;;5125031;27;45399;-71
2022/08/20 10:40:19;;;;;;;25.73;12.13;;;21.30;99.90;;;;;;5124603;27;45366;-71
2022/08/20 10:42:46;;;;;;;29.55;12.90;;;21.40;99.90;;;;;;5124761;27;45274;-72
2022/08/20 10:45:15;;;;;;;27.75;11.23;;;21.40;99.90;;;;;;5125095;27;47113;-70
2022/08/20 10:47:42;;;;;;;25.85;12.18;;;21.50;99.90;;;;;;5124816;27;45269;-71
2022/08/20 10:50:12;;;;;;;25.95;12.43;;;21.40;99.90;;;;;;5125181;27;45373;-71
2022/08/20 10:52:39;;;;;;;24.23;11.77;;;21.20;99.90;;;;;;5124767;27;45435;-71
2022/08/20 10:55:06;;;;;;;24.17;11.15;;;21.20;99.90;;;;;;5123855;27;45350;-71
2022/08/20 10:57:35;;;;;;;26.65;12.02;;;21.20;99.90;;;;;;5124608;27;45358;-71
2022/08/20 11:00:04;;;;;;;28.63;12.70;;;21.30;99.90;;;;;;5125776;27;45331;-70
2022/08/20 11:02:31;;;;;;;27.27;12.45;;;21.50;99.90;;;;;;5145489;27;45285;-71
2022/08/20 11:04:58;;;;;;;23.15;12.13;;;21.50;99.90;;;;;;5144735;27;45421;-71
2022/08/20 11:07:30;;;;;;;24.85;13.00;;;21.50;99.90;;;;;;5143595;27;45695;-71
2022/08/20 11:09:58;;;;;;;26.38;11.80;;;21.50;99.90;;;;;;5145487;27;45208;-71
2022/08/20 11:12:25;;;;;;;20.42;11.73;;;21.40;99.90;;;;;;5143389;27;45539;-71
2022/08/20 11:14:54;;;;;;;23.50;12.30;;;21.40;99.90;;;;;;5144007;27;46238;-71
2022/08/20 11:17:22;;;;;;;20.50;11.57;;;21.50;99.90;;;;;;5139291;27;45351;-71
2022/08/20 11:19:49;;;;;;;24.92;12.43;;;21.60;99.90;;;;;;5124537;27;45408;-71
2022/08/20 11:22:17;;;;;;;23.40;11.85;;;21.60;99.90;;;;;;5124451;27;45558;-71
2022/08/20 11:24:44;;;;;;;25.17;12.57;;;21.50;99.90;;;;;;5123517;27;46420;-72
2022/08/20 11:27:13;;;;;;;16.85;10.32;;;21.60;99.90;;;;;;5123349;27;46058;-71
2022/08/20 11:29:41;;;;;;;22.85;11.65;;;21.60;99.90;;;;;;5124144;27;45368;-71
2022/08/20 11:32:10;;;;;;;21.20;10.93;;;21.60;99.90;;;;;;5124046;27;45389;-71
2022/08/20 11:34:37;;;;;;;23.05;12.63;;;21.70;99.90;;;;;;5124020;27;47719;-71
2022/08/20 11:37:04;;;;;;;23.27;10.57;;;21.70;99.90;;;;;;5123880;27;45315;-71
2022/08/20 11:39:30;;;;;;;19.38;11.65;;;21.60;99.90;;;;;;5124215;27;45352;-71
2022/08/20 11:41:57;;;;;;;23.38;11.32;;;21.50;99.90;;;;;;5123982;27;45278;-71
2022/08/20 11:44:24;;;;;;;19.95;10.00;;;21.50;99.90;;;;;;5123001;27;45640;-71
2022/08/20 11:46:51;;;;;;;20.02;10.18;;;21.50;99.90;;;;;;5123687;27;45733;-71
2022/08/20 11:49:19;;;;;;;17.88;9.52;;;21.60;99.90;;;;;;5124332;27;45429;-71
2022/08/20 11:51:46;;;;;;;22.38;11.20;;;21.70;99.90;;;;;;5124563;27;45537;-72
2022/08/20 11:54:12;;;;;;;18.83;9.45;;;21.70;99.90;;;;;;5122961;27;45331;-71
2022/08/20 11:56:39;;;;;;;26.67;12.05;;;21.90;99.90;;;;;;5123344;27;45711;-71
2022/08/20 11:59:06;;;;;;;25.33;11.23;;;21.80;99.90;;;;;;5123609;27;45380;-71
2022/08/20 12:01:33;;;;;;;20.02;9.60;;;21.80;99.90;;;;;;5123916;27;45297;-71
2022/08/20 12:04:00;;;;;;;21.27;10.90;;;21.80;99.90;;;;;;5122619;27;48748;-71
2022/08/20 12:06:28;;;;;;;22.35;11.30;;;21.80;99.90;;;;;;5123566;27;45255;-72
2022/08/20 12:08:55;;;;;;;18.90;9.48;;;21.90;99.90;;;;;;5123875;27;45426;-71
2022/08/20 12:11:21;;;;;;;21.77;10.10;;;22.00;99.90;;;;;;5122560;27;45417;-72
2022/08/20 12:13:48;;;;;;;16.60;9.30;;;22.10;99.90;;;;;;5121259;27;48117;-71
2022/08/20 12:16:15;;;;;;;18.83;8.98;;;22.10;99.90;;;;;;5123653;27;45475;-71
2022/08/20 12:18:42;;;;;;;16.48;7.78;;;22.10;99.90;;;;;;5123125;27;45393;-71
2022/08/20 12:21:09;;;;;;;19.98;8.98;;;22.30;99.90;;;;;;5130513;27;45399;-71
2022/08/20 12:23:37;;;;;;;14.20;8.43;;;22.30;99.90;;;;;;5143759;27;47000;-71
2022/08/20 12:26:04;;;;;;;17.02;7.63;;;22.20;99.90;;;;;;5132959;27;45344;-72
2022/08/20 12:28:32;;;;;;;17.15;8.38;;;22.40;99.90;;;;;;5123642;27;45492;-71
2022/08/20 12:30:59;;;;;;;16.55;7.05;;;22.50;99.90;;;;;;5126389;27;45410;-71
2022/08/20 12:33:26;;;;;;;17.88;6.97;;;22.50;99.90;;;;;;5125984;27;48349;-71
2022/08/20 12:35:52;;;;;;;13.35;6.60;;;22.50;99.90;;;;;;5126820;27;45493;-71
2022/08/20 12:38:19;;;;;;;18.27;6.60;;;22.40;99.90;;;;;;5127357;27;45393;-71
2022/08/20 12:40:48;;;;;;;16.35;5.93;;;22.50;99.90;;;;;;5126775;27;45461;-71
2022/08/20 12:43:14;;;;;;;12.77;4.95;;;22.40;99.90;;;;;;5137271;27;47871;-71
2022/08/20 12:45:41;;;;;;;15.80;5.60;;;22.50;99.90;;;;;;5135960;27;45602;-71
2022/08/20 12:48:10;;;;;;;17.00;6.07;;;22.60;99.90;;;;;;5126780;27;45295;-71
2022/08/20 12:50:38;;;;;;;16.25;5.88;;;22.50;99.90;;;;;;5126924;27;45304;-71